TimeEST,TemperatureF,Dew PointF,Humidity,Sea Level PressureIn,VisibilityMPH,Wind Direction,Wind SpeedMPH,Gust SpeedMPH,PrecipitationIn,Events,Conditions,WindDirDegrees,DateUTC
12:09 AM,30.2,30.2,100,29.76,0.2,South,3.5,-,N/A,Fog,Light Freezing Fog,190,2013-02-14 05:09:00
12:27 AM,32.0,32.0,100,29.77,0.2,South,3.5,-,N/A,Fog,Fog,190,2013-02-14 05:27:00
12:50 AM,32.0,32.0,100,29.78,0.2,SSW,3.5,-,N/A,Fog,Fog,200,2013-02-14 05:50:00
12:53 AM,32.0,32.0,100,29.83,0.2,Calm,Calm,-,N/A,Fog,Fog,0,2013-02-14 05:53:00
1:03 AM,32.0,32.0,100,29.79,1.0,WSW,3.5,-,N/A,,Overcast,240,2013-02-14 06:03:00
1:09 AM,32.0,32.0,100,29.79,3.0,WSW,4.6,-,N/A,,Overcast,240,2013-02-14 06:09:00
1:53 AM,33.1,33.1,100,29.86,4.0,Calm,Calm,-,N/A,,Overcast,0,2013-02-14 06:53:00
2:48 AM,35.6,30.2,81,29.83,10.0,Calm,Calm,-,N/A,,Overcast,0,2013-02-14 07:48:00
2:53 AM,35.1,30.0,82,29.87,10.0,Calm,Calm,-,N/A,,Overcast,0,2013-02-14 07:53:00
3:53 AM,33.1,26.1,75,29.90,9.0,NW,8.1,-,N/A,,Clear,310,2013-02-14 08:53:00
4:53 AM,32.0,25.0,75,29.94,9.0,WNW,9.2,-,N/A,,Partly Cloudy,290,2013-02-14 09:53:00
5:53 AM,32.0,25.0,75,29.96,9.0,West,3.5,-,N/A,,Clear,260,2013-02-14 10:53:00
6:53 AM,30.9,24.1,76,29.99,9.0,West,8.1,-,N/A,,Clear,270,2013-02-14 11:53:00
7:53 AM,32.0,24.1,73,30.01,9.0,WNW,10.4,-,N/A,,Clear,290,2013-02-14 12:53:00
8:53 AM,34.0,23.0,64,30.02,9.0,NNW,5.8,-,N/A,,Clear,340,2013-02-14 13:53:00
9:53 AM,36.0,23.0,59,30.03,10.0,Calm,Calm,-,N/A,,Clear,0,2013-02-14 14:53:00
10:53 AM,36.0,25.0,64,30.03,10.0,South,3.5,-,N/A,,Clear,180,2013-02-14 15:53:00
11:53 AM,39.0,27.0,62,30.02,8.0,South,4.6,-,N/A,,Clear,190,2013-02-14 16:53:00
12:53 PM,42.1,28.0,58,30.01,10.0,Variable,6.9,-,N/A,,Clear,0,2013-02-14 17:53:00
1:53 PM,43.0,28.0,56,29.99,10.0,Variable,4.6,-,N/A,,Clear,0,2013-02-14 18:53:00
2:53 PM,45.0,28.0,52,29.97,10.0,Calm,Calm,-,N/A,,Scattered Clouds,0,2013-02-14 19:53:00
3:53 PM,46.0,27.0,47,29.98,10.0,South,6.9,-,N/A,,Partly Cloudy,190,2013-02-14 20:53:00
4:53 PM,46.0,28.0,50,29.96,10.0,SSE,5.8,-,N/A,,Overcast,150,2013-02-14 21:53:00
5:53 PM,43.0,28.0,56,29.98,10.0,South,5.8,-,N/A,,Clear,170,2013-02-14 22:53:00
6:53 PM,42.1,28.0,58,30.00,10.0,South,5.8,-,N/A,,Partly Cloudy,170,2013-02-14 23:53:00
7:53 PM,41.0,28.0,60,30.00,10.0,SSE,9.2,-,N/A,,Scattered Clouds,160,2013-02-15 00:53:00
8:53 PM,39.9,27.0,60,30.00,10.0,SE,5.8,-,N/A,,Clear,140,2013-02-15 01:53:00
9:53 PM,37.9,26.1,62,30.00,10.0,South,5.8,-,N/A,,Partly Cloudy,170,2013-02-15 02:53:00
10:53 PM,37.9,26.1,62,29.99,10.0,SSE,5.8,-,N/A,,Partly Cloudy,160,2013-02-15 03:53:00
11:53 PM,37.0,26.1,65,29.99,10.0,South,6.9,-,N/A,,Clear,180,2013-02-15 04:53:00